createdAt,value
2018-05-13T00:02:21.113Z,9.90
2018-05-13T00:04:47.804Z,9.13
2018-05-13T00:07:14.239Z,10.20
2018-05-13T00:09:40.744Z,9.83
2018-05-13T00:12:07.879Z,10.23
2018-05-13T00:14:34.484Z,9.20
2018-05-13T00:17:00.899Z,11.10
2018-05-13T00:19:27.480Z,10.47
2018-05-13T00:21:53.913Z,10.90
2018-05-13T00:24:20.332Z,10.33
2018-05-13T00:26:46.744Z,12.50
2018-05-13T00:29:13.160Z,13.10
2018-05-13T00:31:39.596Z,12.57
2018-05-13T00:34:05.993Z,12.23
2018-05-13T00:36:33.204Z,14.13
2018-05-13T00:38:59.604Z,14.50
2018-05-13T00:41:26.049Z,12.93
2018-05-13T00:43:53.068Z,12.50
2018-05-13T00:46:19.575Z,12.07
2018-05-13T00:48:45.960Z,12.40
2018-05-13T00:51:12.473Z,12.50
2018-05-13T00:53:38.933Z,10.23
2018-05-13T00:56:05.406Z,11.30
2018-05-13T00:58:31.813Z,11.63
2018-05-13T01:00:58.334Z,12.53
2018-05-13T01:03:24.868Z,12.57
2018-05-13T01:05:51.327Z,13.40
2018-05-13T01:08:17.864Z,13.77
2018-05-13T01:10:45.625Z,12.80
2018-05-13T01:13:12.136Z,13.27
2018-05-13T01:15:38.577Z,13.90
2018-05-13T01:18:04.974Z,13.53
2018-05-13T01:20:31.557Z,14.13
2018-05-13T01:22:58.031Z,13.90
2018-05-13T01:25:25.183Z,14.40
2018-05-13T01:27:51.732Z,13.67
2018-05-13T01:30:18.166Z,13.80
2018-05-13T01:32:45.391Z,14.10
2018-05-13T01:35:12.570Z,14.43
2018-05-13T01:37:39.292Z,14.83
2018-05-13T01:40:05.754Z,14.70
2018-05-13T01:42:32.205Z,14.70
2018-05-13T01:44:58.657Z,13.60
2018-05-13T01:47:25.024Z,14.20
2018-05-13T01:49:51.429Z,14.43
2018-05-13T01:52:18.649Z,13.57
2018-05-13T01:54:45.091Z,13.60
2018-05-13T01:57:11.535Z,14.13
2018-05-13T01:59:37.942Z,14.33
2018-05-13T02:02:04.445Z,13.67
2018-05-13T02:04:30.825Z,12.80
2018-05-13T02:06:57.253Z,13.40
2018-05-13T02:09:23.627Z,14.30
2018-05-13T02:11:50.128Z,13.27
2018-05-13T02:14:16.529Z,13.37
2018-05-13T02:16:43.672Z,13.33
2018-05-13T02:19:10.048Z,12.47
2018-05-13T02:21:37.268Z,13.00
2018-05-13T02:24:03.744Z,13.30
2018-05-13T02:26:30.857Z,13.07
2018-05-13T02:28:57.254Z,13.07
2018-05-13T02:31:23.693Z,13.87
2018-05-13T02:33:50.109Z,13.20
2018-05-13T02:36:16.541Z,12.73
2018-05-13T02:38:42.990Z,13.03
2018-05-13T02:41:09.401Z,12.57
2018-05-13T02:43:35.845Z,12.43
2018-05-13T02:46:02.253Z,13.90
2018-05-13T02:48:29.415Z,12.40
2018-05-13T02:50:55.828Z,13.37
2018-05-13T02:53:23.042Z,13.60
2018-05-13T02:55:49.462Z,12.80
2018-05-13T02:58:16.012Z,14.20
2018-05-13T03:00:42.406Z,13.03
2018-05-13T03:03:08.882Z,12.70
2018-05-13T03:05:35.281Z,12.83
2018-05-13T03:08:01.801Z,12.17
2018-05-13T03:10:28.219Z,12.90
2018-05-13T03:12:54.692Z,13.87
2018-05-13T03:15:21.080Z,14.10
2018-05-13T03:17:48.259Z,13.33
2018-05-13T03:20:14.724Z,14.43
2018-05-13T03:22:41.135Z,12.67
2018-05-13T03:25:07.508Z,14.93
2018-05-13T03:27:33.943Z,14.60
2018-05-13T03:30:01.052Z,14.80
2018-05-13T03:32:27.564Z,14.90
2018-05-13T03:34:53.944Z,13.73
2018-05-13T03:37:20.328Z,15.00
2018-05-13T03:39:46.750Z,15.47
2018-05-13T03:42:13.130Z,16.60
2018-05-13T03:44:39.576Z,16.17
2018-05-13T03:47:05.956Z,16.83
2018-05-13T03:49:32.436Z,16.40
2018-05-13T03:51:58.811Z,15.07
2018-05-13T03:54:25.325Z,17.70
2018-05-13T03:56:52.461Z,16.57
2018-05-13T03:59:19.756Z,16.13
2018-05-13T04:01:46.161Z,16.57
2018-05-13T04:04:13.274Z,16.63
2018-05-13T04:06:39.813Z,16.90
2018-05-13T04:09:18.589Z,17.70
2018-05-13T04:11:57.189Z,16.10
2018-05-13T04:14:35.844Z,16.17
2018-05-13T04:17:09.312Z,15.97
2018-05-13T04:19:35.735Z,15.70
2018-05-13T04:22:02.233Z,16.70
2018-05-13T04:24:28.619Z,15.50
2018-05-13T04:26:55.108Z,15.40
2018-05-13T04:29:21.479Z,16.23
2018-05-13T04:31:48.136Z,15.87
2018-05-13T04:34:14.580Z,15.30
2018-05-13T04:36:40.987Z,15.40
2018-05-13T04:39:07.397Z,15.80
2018-05-13T04:41:33.825Z,15.73
2018-05-13T04:44:01.024Z,16.40
2018-05-13T04:46:27.421Z,15.50
2018-05-13T04:48:53.954Z,15.33
2018-05-13T04:51:20.320Z,14.97
2018-05-13T04:53:46.868Z,15.60
2018-05-13T04:56:13.240Z,15.57
2018-05-13T04:58:40.389Z,15.33
2018-05-13T05:01:07.522Z,15.00
2018-05-13T05:03:34.728Z,16.23
2018-05-13T05:06:01.160Z,14.47
2018-05-13T05:08:27.626Z,16.13
2018-05-13T05:10:54.067Z,15.67
2018-05-13T05:13:20.489Z,14.40
2018-05-13T05:15:46.921Z,15.37
2018-05-13T05:18:13.409Z,15.90
2018-05-13T05:20:39.872Z,15.13
2018-05-13T05:23:06.362Z,15.40
2018-05-13T05:25:32.783Z,16.53
2018-05-13T05:27:59.293Z,16.73
2018-05-13T05:30:25.653Z,15.03
2018-05-13T05:32:52.150Z,15.47
2018-05-13T05:35:18.523Z,15.40
2018-05-13T05:37:44.995Z,15.27
2018-05-13T05:40:11.371Z,14.70
2018-05-13T05:42:38.600Z,14.20
2018-05-13T05:45:05.218Z,14.93
2018-05-13T05:47:31.635Z,13.43
2018-05-13T05:49:58.057Z,14.87
2018-05-13T05:52:24.510Z,14.67
2018-05-13T05:54:51.043Z,15.63
2018-05-13T05:57:17.442Z,14.83
2018-05-13T05:59:43.913Z,14.23
2018-05-13T06:02:10.312Z,14.73
2018-05-13T06:04:36.846Z,14.73
2018-05-13T06:07:03.266Z,15.93
2018-05-13T06:09:29.799Z,16.27
2018-05-13T06:11:56.181Z,15.13
2018-05-13T06:14:22.669Z,15.10
2018-05-13T06:16:49.157Z,15.00
2018-05-13T06:19:15.592Z,14.97
2018-05-13T06:21:41.980Z,14.80
2018-05-13T06:24:08.384Z,15.47
2018-05-13T06:26:35.711Z,15.77
2018-05-13T06:29:03.043Z,16.07
2018-05-13T06:31:29.505Z,15.37
2018-05-13T06:33:55.911Z,15.07
2018-05-13T06:36:22.323Z,15.60
2018-05-13T06:38:48.806Z,15.37
2018-05-13T06:41:15.968Z,15.70
2018-05-13T06:43:43.135Z,16.77
2018-05-13T06:46:09.620Z,14.90
2018-05-13T06:48:36.031Z,17.17
2018-05-13T06:51:02.470Z,16.50
2018-05-13T06:53:28.896Z,15.60
2018-05-13T06:55:55.376Z,15.60
2018-05-13T06:58:22.603Z,15.40
2018-05-13T07:00:49.025Z,15.80
2018-05-13T07:03:15.460Z,15.33
2018-05-13T07:05:41.849Z,14.13
2018-05-13T07:08:08.299Z,13.97
2018-05-13T07:10:34.768Z,12.87
2018-05-13T07:13:01.354Z,14.20
2018-05-13T07:15:28.594Z,14.77
2018-05-13T07:17:55.005Z,13.03
2018-05-13T07:20:22.196Z,14.13
2018-05-13T07:22:48.665Z,14.40
2018-05-13T07:25:15.115Z,14.37
2018-05-13T07:27:42.309Z,14.73
2018-05-13T07:30:08.748Z,15.53
2018-05-13T07:32:35.162Z,15.10
2018-05-13T07:35:01.637Z,16.70
2018-05-13T07:37:28.116Z,16.53
2018-05-13T07:39:54.542Z,15.00
2018-05-13T07:42:21.668Z,15.50
2018-05-13T07:44:48.107Z,14.50
2018-05-13T07:47:15.355Z,16.10
2018-05-13T07:49:41.780Z,14.03
2018-05-13T07:52:08.323Z,14.70
2018-05-13T07:54:34.727Z,14.53
2018-05-13T07:57:01.911Z,13.37
2018-05-13T07:59:29.062Z,14.40
2018-05-13T08:01:56.227Z,15.83
2018-05-13T08:04:23.401Z,16.13
2018-05-13T08:06:49.835Z,13.33
2018-05-13T08:09:16.361Z,14.80
2018-05-13T08:11:42.817Z,14.33
2018-05-13T08:14:09.357Z,15.33
2018-05-13T08:16:36.473Z,14.20
2018-05-13T08:19:02.921Z,15.60
2018-05-13T08:21:29.350Z,15.80
2018-05-13T08:23:55.783Z,15.63
2018-05-13T08:26:22.255Z,14.67
2018-05-13T08:28:48.721Z,14.90
2018-05-13T08:31:15.888Z,16.57
2018-05-13T08:33:42.288Z,15.63
2018-05-13T08:36:09.472Z,15.20
2018-05-13T08:38:35.913Z,15.40
2018-05-13T08:41:02.344Z,15.57
2018-05-13T08:43:28.817Z,15.97
2018-05-13T08:45:55.237Z,14.83
2018-05-13T08:48:21.941Z,15.03
2018-05-13T08:50:49.125Z,14.33
2018-05-13T08:53:15.560Z,14.47
2018-05-13T08:55:42.017Z,14.07
2018-05-13T08:58:09.247Z,14.10
2018-05-13T09:00:35.685Z,12.90
2018-05-13T09:03:02.126Z,12.77
2018-05-13T09:05:28.521Z,10.83
2018-05-13T09:07:54.986Z,11.17
2018-05-13T09:10:21.445Z,11.50
2018-05-13T09:12:48.593Z,11.13
2018-05-13T09:15:15.847Z,10.13
2018-05-13T09:17:42.986Z,11.70
2018-05-13T09:20:10.245Z,13.00
2018-05-13T09:22:37.559Z,10.53
2018-05-13T09:25:03.972Z,10.70
2018-05-13T09:27:30.438Z,10.57
2018-05-13T09:29:56.889Z,12.47
2018-05-13T09:32:24.035Z,13.13
2018-05-13T09:34:51.287Z,11.37
2018-05-13T09:37:18.471Z,10.70
2018-05-13T09:39:44.924Z,12.10
2018-05-13T09:42:11.331Z,13.10
2018-05-13T09:44:37.763Z,12.40
2018-05-13T09:47:04.189Z,13.37
2018-05-13T09:49:30.590Z,12.80
2018-05-13T09:51:57.092Z,11.93
2018-05-13T09:54:23.509Z,12.60
2018-05-13T09:56:50.066Z,11.80
2018-05-13T09:59:16.508Z,12.00
2018-05-13T10:01:43.085Z,11.80
2018-05-13T10:04:09.471Z,12.87
2018-05-13T10:06:36.074Z,11.60
2018-05-13T10:09:02.467Z,13.43
2018-05-13T10:11:29.646Z,14.53
2018-05-13T10:13:56.127Z,12.57
2018-05-13T10:16:22.563Z,13.17
2018-05-13T10:18:49.025Z,13.50
2018-05-13T10:21:16.264Z,12.50
2018-05-13T10:23:43.492Z,13.13
2018-05-13T10:26:09.925Z,14.10
2018-05-13T10:28:36.335Z,13.37
2018-05-13T10:31:02.752Z,14.63
2018-05-13T10:33:29.183Z,14.87
2018-05-13T10:35:55.639Z,12.80
2018-05-13T10:38:22.186Z,13.93
2018-05-13T10:40:48.596Z,13.93
2018-05-13T10:43:15.002Z,13.13
2018-05-13T10:45:41.507Z,12.80
2018-05-13T10:48:08.670Z,14.90
2018-05-13T10:50:35.908Z,12.90
2018-05-13T10:53:03.061Z,12.83
2018-05-13T10:55:30.212Z,11.50
2018-05-13T10:57:57.356Z,11.60
2018-05-13T11:00:24.780Z,14.77
2018-05-13T11:02:51.265Z,13.70
2018-05-13T11:05:17.716Z,13.10
2018-05-13T11:07:44.168Z,12.90
2018-05-13T11:10:10.672Z,12.20
2018-05-13T11:12:37.160Z,12.53
2018-05-13T11:15:03.657Z,11.97
2018-05-13T11:17:30.076Z,12.30
2018-05-13T11:19:56.553Z,10.50
2018-05-13T11:22:23.001Z,12.50
2018-05-13T11:24:49.377Z,12.77
2018-05-13T11:27:15.938Z,12.33
2018-05-13T11:29:42.388Z,11.40
2018-05-13T11:32:08.833Z,12.83
2018-05-13T11:34:36.291Z,13.33
2018-05-13T11:37:03.574Z,11.90
2018-05-13T11:39:30.028Z,10.80
2018-05-13T11:41:56.488Z,12.57
2018-05-13T11:44:22.909Z,11.50
2018-05-13T11:46:49.439Z,13.80
2018-05-13T11:49:16.599Z,12.10
2018-05-13T11:51:43.065Z,12.13
2018-05-13T11:54:10.206Z,12.07
2018-05-13T11:56:36.602Z,11.27
2018-05-13T11:59:03.080Z,13.60
2018-05-13T12:01:30.246Z,13.67
2018-05-13T12:03:56.706Z,12.90
2018-05-13T12:06:23.212Z,14.27
2018-05-13T12:08:49.681Z,13.20
2018-05-13T12:11:16.113Z,12.33
2018-05-13T12:13:42.528Z,13.57
2018-05-13T12:16:08.949Z,12.83
2018-05-13T12:18:35.326Z,13.27
2018-05-13T12:21:01.783Z,13.47
2018-05-13T12:23:28.941Z,12.90
2018-05-13T12:25:56.147Z,12.57
2018-05-13T12:28:22.577Z,13.90
2018-05-13T12:30:49.040Z,13.60
2018-05-13T12:33:15.424Z,13.13
2018-05-13T12:35:41.875Z,12.70
2018-05-13T12:38:08.316Z,14.03
2018-05-13T12:40:34.744Z,14.00
2018-05-13T12:43:01.179Z,14.20
2018-05-13T12:45:27.596Z,13.57
2018-05-13T12:47:54.044Z,14.40
2018-05-13T12:50:27.647Z,14.40
2018-05-13T12:52:54.104Z,14.83
2018-05-13T12:55:20.523Z,15.13
2018-05-13T12:57:46.972Z,15.40
2018-05-13T13:00:14.144Z,15.40
2018-05-13T13:02:41.449Z,14.33
2018-05-13T13:05:07.856Z,16.50
2018-05-13T13:07:34.334Z,15.57
2018-05-13T13:10:00.761Z,17.37
2018-05-13T13:12:27.220Z,17.80
2018-05-13T13:14:54.433Z,15.40
2018-05-13T13:17:20.851Z,14.17
2018-05-13T13:19:47.333Z,16.20
2018-05-13T13:22:14.513Z,13.47
2018-05-13T13:24:40.919Z,17.17
2018-05-13T13:27:08.082Z,13.43
2018-05-13T13:29:34.584Z,16.33
2018-05-13T13:32:01.727Z,15.77
2018-05-13T13:37:24.913Z,17.30
2018-05-13T13:39:52.140Z,17.43
2018-05-13T13:42:18.567Z,17.30
2018-05-13T13:44:45.062Z,16.83
2018-05-13T13:47:11.505Z,16.97
2018-05-13T13:49:37.933Z,17.50
2018-05-13T13:52:04.457Z,17.00
2018-05-13T13:54:30.884Z,17.77
2018-05-13T13:56:57.332Z,16.37
2018-05-13T13:59:23.761Z,14.50
2018-05-13T14:01:50.193Z,16.60
2018-05-13T14:04:16.609Z,16.00
2018-05-13T14:06:43.056Z,16.80
2018-05-13T14:09:09.508Z,15.63
2018-05-13T14:11:36.109Z,17.53
2018-05-13T14:14:02.768Z,18.13
2018-05-13T14:16:29.241Z,18.50
2018-05-13T14:18:55.692Z,17.47
2018-05-13T14:21:22.917Z,15.73
2018-05-13T14:23:49.546Z,19.00
2018-05-13T14:26:15.872Z,18.53
2018-05-13T14:28:42.427Z,19.53
2018-05-13T14:31:08.838Z,17.07
2018-05-13T14:33:35.349Z,17.33
2018-05-13T14:36:01.788Z,16.70
2018-05-13T14:38:28.286Z,17.77
2018-05-13T14:40:55.637Z,18.57
2018-05-13T14:43:22.048Z,17.43
2018-05-13T14:45:48.552Z,19.20
2018-05-13T14:48:15.028Z,18.40
2018-05-13T14:50:42.269Z,16.87
2018-05-13T14:53:08.708Z,18.80
2018-05-13T14:55:35.895Z,17.90
2018-05-13T14:58:02.413Z,17.20
2018-05-13T15:00:29.680Z,17.57
2018-05-13T15:02:56.144Z,17.00
2018-05-13T15:05:22.633Z,15.83
2018-05-13T15:07:49.155Z,16.43
2018-05-13T15:10:16.433Z,16.63
2018-05-13T15:12:42.882Z,16.57
2018-05-13T15:15:09.397Z,18.43
2018-05-13T15:17:35.814Z,18.10
2018-05-13T15:20:03.093Z,16.97
2018-05-13T15:22:33.547Z,17.93
2018-05-13T15:25:00.787Z,17.70
2018-05-13T15:27:34.268Z,18.37
2018-05-13T15:30:00.672Z,16.67
2018-05-13T15:32:27.172Z,16.93
2018-05-13T15:34:53.648Z,16.63
2018-05-13T15:37:20.146Z,17.97
2018-05-13T15:39:46.629Z,17.20
2018-05-13T15:42:13.040Z,18.50
2018-05-13T15:44:40.243Z,17.00
2018-05-13T15:47:06.678Z,19.10
2018-05-13T15:49:33.169Z,17.60
2018-05-13T15:51:59.609Z,15.40
2018-05-13T15:54:26.053Z,19.00
2018-05-13T15:56:52.506Z,20.07
2018-05-13T15:59:18.973Z,19.80
2018-05-13T16:01:46.136Z,20.73
2018-05-13T16:04:13.406Z,22.80
2018-05-13T16:06:39.955Z,23.30
2018-05-13T16:09:07.169Z,23.97
2018-05-13T16:11:34.341Z,23.90
2018-05-13T16:14:03.961Z,21.70
2018-05-13T16:16:30.438Z,24.27
2018-05-13T16:18:56.977Z,23.83
2018-05-13T16:21:23.377Z,23.40
2018-05-13T16:23:49.857Z,21.33
2018-05-13T16:26:17.049Z,22.73
2018-05-13T16:28:43.560Z,26.10
2018-05-13T16:31:10.041Z,22.70
2018-05-13T16:33:36.512Z,25.80
2018-05-13T16:36:04.819Z,26.33
2018-05-13T16:38:31.440Z,23.97
2018-05-13T16:40:59.686Z,26.03
2018-05-13T16:43:26.925Z,28.07
2018-05-13T16:45:55.657Z,31.30
2018-05-13T16:48:22.101Z,30.63
2018-05-13T16:50:48.627Z,28.40
2018-05-13T16:53:15.134Z,33.80
2018-05-13T16:55:41.659Z,33.03
2018-05-13T16:58:08.914Z,18.87
2018-05-13T17:00:36.111Z,25.17
2018-05-13T17:03:02.592Z,29.07
2018-05-13T17:05:29.810Z,25.30
2018-05-13T17:07:56.400Z,19.90
2018-05-13T17:10:22.870Z,28.13
2018-05-13T17:12:49.765Z,27.17
2018-05-13T17:15:17.023Z,30.13
2018-05-13T17:17:44.268Z,30.57
2018-05-13T17:20:11.488Z,26.77
2018-05-13T17:22:37.938Z,32.93
2018-05-13T17:25:04.473Z,30.50
2018-05-13T17:27:30.916Z,26.87
2018-05-13T17:29:58.134Z,19.87
2018-05-13T17:32:24.706Z,30.60
2018-05-13T17:34:52.010Z,32.00
2018-05-13T17:37:18.524Z,30.87
2018-05-13T17:39:45.003Z,32.20
2018-05-13T17:42:11.654Z,32.13
2018-05-13T17:44:38.931Z,33.90
2018-05-13T17:47:05.553Z,34.80
2018-05-13T17:49:32.785Z,34.63
2018-05-13T17:51:59.278Z,32.50
2018-05-13T17:54:25.742Z,34.00
2018-05-13T17:56:52.224Z,32.33
2018-05-13T17:59:18.723Z,33.90
2018-05-13T18:01:45.204Z,33.30
2018-05-13T18:04:11.773Z,35.87
2018-05-13T18:06:38.285Z,35.77
2018-05-13T18:09:04.932Z,36.60
2018-05-13T18:11:31.469Z,36.87
2018-05-13T18:13:58.257Z,35.80
2018-05-13T18:16:25.465Z,37.37
2018-05-13T18:18:51.943Z,38.00
2018-05-13T18:21:19.301Z,36.30
2018-05-13T18:23:45.916Z,38.30
2018-05-13T18:26:12.584Z,35.97
2018-05-13T18:28:39.072Z,38.77
2018-05-13T18:31:07.190Z,40.50
2018-05-13T18:33:34.418Z,35.73
2018-05-13T18:36:00.983Z,33.77
2018-05-13T18:38:27.458Z,34.67
2018-05-13T18:40:53.995Z,37.47
2018-05-13T18:43:21.262Z,37.90
2018-05-13T18:48:12.392Z,33.63
2018-05-13T18:50:40.639Z,26.40
2018-05-13T18:53:07.144Z,30.67
2018-05-13T18:55:33.717Z,30.93
2018-05-13T18:58:00.251Z,32.83
2018-05-13T19:00:26.843Z,30.83
2018-05-13T19:02:53.414Z,33.43
2018-05-13T19:05:19.985Z,36.20
2018-05-13T19:07:47.256Z,34.50
2018-05-13T19:10:13.800Z,30.37
2018-05-13T19:12:40.617Z,29.80
2018-05-13T19:15:07.932Z,26.00
2018-05-13T19:17:34.565Z,27.37
2018-05-13T19:20:01.150Z,28.40
2018-05-13T19:22:27.708Z,24.17
2018-05-13T19:24:54.409Z,27.80
2018-05-13T19:27:21.673Z,24.60
2018-05-13T19:29:48.397Z,20.87
2018-05-13T19:32:15.689Z,18.73
2018-05-13T19:34:42.173Z,19.30
2018-05-13T19:37:08.709Z,21.17
2018-05-13T19:39:35.971Z,21.30
2018-05-13T19:42:03.172Z,20.60
2018-05-13T19:44:29.584Z,17.60
2018-05-13T19:46:56.309Z,20.10
2018-05-13T19:49:22.758Z,18.00
2018-05-13T19:51:49.384Z,18.97
2018-05-13T19:54:15.825Z,20.80
2018-05-13T19:56:42.422Z,21.47
2018-05-13T19:59:08.829Z,17.80
2018-05-13T20:01:35.409Z,18.03
2018-05-13T20:04:02.661Z,16.13
2018-05-13T20:06:29.913Z,17.43
2018-05-13T20:08:57.255Z,16.93
2018-05-13T20:11:24.491Z,15.40
2018-05-13T20:13:51.007Z,16.67
2018-05-13T20:16:17.516Z,15.67
2018-05-13T20:18:44.015Z,18.23
2018-05-13T20:21:10.563Z,19.03
2018-05-13T20:23:37.074Z,19.43
2018-05-13T20:26:04.314Z,20.00
2018-05-13T20:28:30.849Z,20.60
2018-05-13T20:30:57.312Z,18.20
2018-05-13T20:33:24.007Z,20.60
2018-05-13T20:35:50.451Z,20.50
2018-05-13T20:38:17.024Z,18.70
2018-05-13T20:40:43.532Z,18.57
2018-05-13T20:43:10.742Z,20.43
2018-05-13T20:45:37.326Z,20.27
2018-05-13T20:48:04.512Z,20.00
2018-05-13T20:50:30.970Z,20.47
2018-05-13T20:52:57.488Z,17.20
2018-05-13T20:55:23.976Z,17.87
2018-05-13T20:57:51.171Z,20.57
2018-05-13T21:00:17.741Z,18.30
2018-05-13T21:02:44.210Z,20.67
2018-05-13T21:05:10.706Z,19.77
2018-05-13T21:07:37.185Z,19.93
2018-05-13T21:10:03.724Z,18.50
2018-05-13T21:12:30.157Z,17.73
2018-05-13T21:14:56.591Z,19.63
2018-05-13T21:17:23.072Z,18.00
2018-05-13T21:19:49.588Z,20.03
2018-05-13T21:22:16.061Z,19.57
2018-05-13T21:24:43.221Z,20.33
2018-05-13T21:27:09.672Z,17.73
2018-05-13T21:29:36.084Z,19.63
2018-05-13T21:32:03.303Z,19.40
2018-05-13T21:34:29.792Z,18.93
2018-05-13T21:36:56.190Z,19.70
2018-05-13T21:39:23.368Z,21.43
2018-05-13T21:41:49.828Z,21.70
2018-05-13T21:44:16.255Z,19.37
2018-05-13T21:46:42.689Z,18.20
2018-05-13T21:49:09.111Z,17.57
2018-05-13T21:51:35.578Z,18.60
2018-05-13T21:54:02.010Z,17.87
2018-05-13T21:56:28.568Z,14.00
2018-05-13T21:58:55.856Z,12.50
2018-05-13T22:01:22.287Z,12.90
2018-05-13T22:03:50.575Z,13.40
2018-05-13T22:06:17.008Z,12.77
2018-05-13T22:08:43.563Z,14.33
2018-05-13T22:11:09.972Z,14.33
2018-05-13T22:13:36.452Z,15.30
2018-05-13T22:16:02.852Z,14.80
2018-05-13T22:18:29.408Z,13.93
2018-05-13T22:20:55.868Z,13.60
2018-05-13T22:23:23.013Z,15.33
2018-05-13T22:25:50.308Z,14.47
2018-05-13T22:28:17.441Z,14.67
2018-05-13T22:30:43.966Z,15.10
2018-05-13T22:33:10.381Z,13.57
2018-05-13T22:35:37.676Z,13.43
2018-05-13T22:38:04.092Z,15.00
2018-05-13T22:40:30.606Z,14.50
2018-05-13T22:42:57.945Z,15.33
2018-05-13T22:45:25.339Z,15.00
2018-05-13T22:47:51.748Z,15.37
2018-05-13T22:50:18.957Z,16.00
2018-05-13T22:52:45.422Z,15.90
2018-05-13T22:55:12.698Z,14.67
2018-05-13T22:57:39.109Z,16.17
2018-05-13T23:00:06.286Z,15.50
2018-05-13T23:02:32.705Z,15.43
2018-05-13T23:04:59.124Z,15.50
2018-05-13T23:07:26.317Z,14.50
2018-05-13T23:09:52.791Z,13.80
2018-05-13T23:12:19.266Z,14.00
2018-05-13T23:14:45.677Z,13.33
2018-05-13T23:17:12.848Z,11.40
2018-05-13T23:19:39.269Z,12.90
2018-05-13T23:22:05.712Z,13.37
2018-05-13T23:24:32.241Z,12.60
2018-05-13T23:26:58.684Z,12.10
2018-05-13T23:29:25.132Z,10.83
2018-05-13T23:31:51.550Z,11.73
2018-05-13T23:34:18.028Z,10.60
2018-05-13T23:36:44.437Z,11.47
2018-05-13T23:39:11.007Z,9.93
2018-05-13T23:41:37.439Z,12.50
2018-05-13T23:44:03.901Z,11.67
2018-05-13T23:46:30.300Z,8.60
2018-05-13T23:48:57.485Z,7.50
2018-05-13T23:51:23.988Z,6.20
2018-05-13T23:53:50.357Z,6.63
2018-05-13T23:56:16.896Z,6.07
2018-05-13T23:58:43.317Z,4.43
